createdAt,value
2023-04-13T00:01:50.929Z,-23999.22
2023-04-13T00:08:13.174Z,-23999.82
2023-04-13T00:10:42.511Z,-23998.72
2023-04-13T00:13:11.090Z,-23998.34
2023-04-13T00:15:42.168Z,-23998.41
2023-04-13T00:18:12.580Z,-23998.31
2023-04-13T00:20:42.116Z,-23998.22
2023-04-13T00:23:10.783Z,-23998.28
2023-04-13T00:25:38.912Z,-23998.13
2023-04-13T00:28:08.350Z,-23998.00
2023-04-13T00:30:36.926Z,-23997.66
2023-04-13T00:33:07.444Z,-23997.47
2023-04-13T00:35:35.657Z,-23997.38
2023-04-13T00:38:04.583Z,-23997.31
2023-04-13T00:40:33.958Z,-23997.22
2023-04-13T00:43:02.782Z,-23997.22
2023-04-13T00:45:31.539Z,-23996.72
2023-04-13T00:48:04.130Z,-23996.19
2023-04-13T00:50:34.222Z,-23996.19
2023-04-13T00:53:02.547Z,-23996.47
2023-04-13T00:55:33.330Z,-23996.56
2023-04-13T00:58:02.085Z,-23996.56
2023-04-13T01:00:30.477Z,-23996.66
2023-04-13T01:03:02.690Z,-23996.82
2023-04-13T01:05:37.801Z,-23997.00
2023-04-13T01:08:18.615Z,-23996.91
2023-04-13T01:11:06.029Z,-23996.88
2023-04-13T01:13:44.708Z,-23996.72
2023-04-13T01:16:25.568Z,-23996.85
2023-04-13T01:18:54.265Z,-23996.75
2023-04-13T01:21:27.852Z,-23996.78
2023-04-13T01:24:09.385Z,-23996.94
2023-04-13T01:26:58.644Z,-23996.85
2023-04-13T01:29:28.087Z,-23996.82
2023-04-13T01:31:57.195Z,-23997.04
2023-04-13T01:34:25.629Z,-23997.22
2023-04-13T01:36:53.876Z,-23997.41
2023-04-13T01:39:22.555Z,-23997.25
2023-04-13T01:42:02.378Z,-23997.13
2023-04-13T01:44:33.161Z,-23997.16
2023-04-13T01:47:16.518Z,-23997.47
2023-04-13T01:50:04.465Z,-23997.78
2023-04-13T01:52:36.586Z,-23998.06
2023-04-13T01:55:06.280Z,-23998.22
2023-04-13T01:57:36.217Z,-23998.34
2023-04-13T02:00:11.073Z,-23998.44
2023-04-13T02:02:41.962Z,-23997.84
2023-04-13T02:05:11.662Z,-23997.34
2023-04-13T02:07:43.048Z,-23996.91
2023-04-13T02:10:12.276Z,-23996.88
2023-04-13T02:12:40.986Z,-23996.85
2023-04-13T02:15:11.255Z,-23996.88
2023-04-13T02:17:45.083Z,-23997.16
2023-04-13T02:20:13.343Z,-23997.16
2023-04-13T02:22:49.087Z,-23996.88
2023-04-13T02:25:19.062Z,-23996.41
2023-04-13T02:27:47.683Z,-23995.91
2023-04-13T02:30:17.586Z,-23995.60
2023-04-13T02:33:00.882Z,-23995.31
2023-04-13T02:35:30.428Z,-23994.84
2023-04-13T02:37:58.648Z,-23994.52
2023-04-13T02:40:28.537Z,-23993.96
2023-04-13T02:43:00.160Z,-23993.30
2023-04-13T02:45:29.517Z,-23993.21
2023-04-13T02:48:06.164Z,-23993.27
2023-04-13T02:50:35.310Z,-23992.81
2023-04-13T02:53:08.135Z,-23992.24
2023-04-13T02:55:42.187Z,-23991.96
2023-04-13T02:58:12.775Z,-23991.46
2023-04-13T03:00:42.349Z,-23990.71
2023-04-13T03:03:20.576Z,-23990.11
2023-04-13T03:05:51.633Z,-23989.46
2023-04-13T03:08:26.146Z,-23988.77
2023-04-13T03:11:09.741Z,-23988.36
2023-04-13T03:13:39.966Z,-23988.18
2023-04-13T03:16:11.458Z,-23988.02
2023-04-13T03:18:39.819Z,-23987.49
2023-04-13T03:21:09.797Z,-23986.96
2023-04-13T03:23:43.958Z,-23986.21
2023-04-13T03:26:13.434Z,-23986.05
2023-04-13T03:28:41.816Z,-23985.83
2023-04-13T03:31:10.552Z,-23985.89
2023-04-13T03:33:40.420Z,-23985.77
2023-04-13T03:36:09.966Z,-23985.86
2023-04-13T03:38:42.088Z,-23985.80
2023-04-13T03:41:11.499Z,-23985.55
2023-04-13T03:43:40.000Z,-23985.86
2023-04-13T03:46:13.419Z,-23986.14
2023-04-13T03:48:42.223Z,-23986.43
2023-04-13T03:51:12.170Z,-23986.83
2023-04-13T03:53:50.686Z,-23987.55
2023-04-13T03:56:23.486Z,-23988.27
2023-04-13T03:58:52.373Z,-23988.65
2023-04-13T04:01:24.006Z,-23988.93
2023-04-13T04:03:57.497Z,-23989.21
2023-04-13T04:06:29.849Z,-23989.46
2023-04-13T04:09:10.328Z,-23989.77
2023-04-13T04:11:43.842Z,-23989.89
2023-04-13T04:14:12.219Z,-23990.08
2023-04-13T04:16:48.039Z,-23990.24
2023-04-13T04:19:17.358Z,-23990.81
2023-04-13T04:21:47.249Z,-23991.37
2023-04-13T04:24:22.923Z,-23991.71
2023-04-13T04:26:55.406Z,-23991.49
2023-04-13T04:29:30.005Z,-23991.46
2023-04-13T04:31:59.157Z,-23991.87
2023-04-13T04:34:28.269Z,-23992.37
2023-04-13T04:37:00.230Z,-23992.90
2023-04-13T04:39:35.457Z,-23993.56
2023-04-13T04:42:11.733Z,-23993.78
2023-04-13T04:44:40.169Z,-23993.75
2023-04-13T04:47:13.515Z,-23993.75
2023-04-13T04:49:58.144Z,-23993.81
2023-04-13T04:52:26.715Z,-23993.84
2023-04-13T04:54:56.314Z,-23994.03
2023-04-13T04:57:29.761Z,-23994.65
2023-04-13T04:59:58.989Z,-23995.28
2023-04-13T05:02:28.317Z,-23995.72
2023-04-13T05:04:57.741Z,-23997.06
2023-04-13T05:07:28.890Z,-23998.72
2023-04-13T05:09:57.668Z,-24000.54
2023-04-13T05:12:27.116Z,-24002.16
2023-04-13T05:14:56.264Z,-24003.41
2023-04-13T05:17:26.331Z,-24004.47
2023-04-13T05:19:54.732Z,-24006.10
2023-04-13T05:22:33.024Z,-24008.66
2023-04-13T05:25:06.571Z,-24010.85
2023-04-13T05:27:35.161Z,-24013.16
2023-04-13T05:30:09.730Z,-24015.78
2023-04-13T05:32:41.410Z,-24017.44
2023-04-13T05:35:10.469Z,-24018.31
2023-04-13T05:37:41.506Z,-24020.06
2023-04-13T05:40:15.105Z,-24022.56
2023-04-13T05:42:43.864Z,-24025.34
2023-04-13T05:45:17.189Z,-24026.62
2023-04-13T05:48:06.472Z,-24027.21
2023-04-13T05:50:37.755Z,-24027.37
2023-04-13T05:53:08.048Z,-24027.34
2023-04-13T05:55:45.678Z,-24027.68
2023-04-13T05:58:19.372Z,-24028.84
2023-04-13T06:00:50.861Z,-24030.24
2023-04-13T06:03:21.013Z,-24031.34
2023-04-13T06:05:50.051Z,-24032.21
2023-04-13T06:08:18.280Z,-24033.15
2023-04-13T06:10:46.614Z,-24034.14
2023-04-13T06:13:20.549Z,-24035.18
2023-04-13T06:15:53.031Z,-24036.33
2023-04-13T06:18:21.248Z,-24037.70
2023-04-13T06:20:52.562Z,-24039.14
2023-04-13T06:23:21.963Z,-24040.05
2023-04-13T06:25:50.972Z,-24041.17
2023-04-13T06:28:29.236Z,-24042.48
2023-04-13T06:30:57.993Z,-24044.23
2023-04-13T06:33:26.723Z,-24045.38
2023-04-13T06:35:55.869Z,-24046.16
2023-04-13T06:38:24.287Z,-24046.85
2023-04-13T06:41:02.884Z,-24047.10
2023-04-13T06:43:33.843Z,-24047.44
2023-04-13T06:46:19.593Z,-24048.79
2023-04-13T06:48:51.971Z,-24050.78
2023-04-13T06:51:23.929Z,-24052.72
2023-04-13T06:53:54.683Z,-24054.96
2023-04-13T06:56:25.841Z,-24057.74
2023-04-13T06:59:00.826Z,-24060.61
2023-04-13T07:01:30.709Z,-24063.67
2023-04-13T07:04:02.583Z,-24067.41
2023-04-13T07:06:32.549Z,-24071.06
2023-04-13T07:09:01.709Z,-24073.08
2023-04-13T07:11:38.128Z,-24074.43
2023-04-13T07:14:08.856Z,-24075.39
2023-04-13T07:16:37.170Z,-24075.98
2023-04-13T07:19:05.621Z,-24074.96
2023-04-13T07:21:35.932Z,-24073.52
2023-04-13T07:24:06.150Z,-24073.64
2023-04-13T07:26:41.282Z,-24075.64
2023-04-13T07:29:13.733Z,-24078.23
2023-04-13T07:31:45.199Z,-24080.19
2023-04-13T07:34:14.105Z,-24082.90
2023-04-13T07:36:46.313Z,-24086.30
2023-04-13T07:39:17.688Z,-24090.60
2023-04-13T07:41:48.248Z,-24094.83
2023-04-13T07:44:26.643Z,-24096.83
2023-04-13T07:46:56.380Z,-24100.07
2023-04-13T07:49:25.768Z,-24103.43
2023-04-13T07:51:54.827Z,-24103.59
2023-04-13T07:54:23.437Z,-24103.90
2023-04-13T07:56:52.121Z,-24104.34
2023-04-13T07:59:22.174Z,-24103.59
2023-04-13T08:01:53.252Z,-24102.13
2023-04-13T08:04:22.559Z,-24101.88
2023-04-13T08:06:54.292Z,-24103.13
2023-04-13T08:09:23.455Z,-24104.25
2023-04-13T08:11:51.862Z,-24105.46
2023-04-13T08:14:25.787Z,-24105.43
2023-04-13T08:16:55.521Z,-24104.12
2023-04-13T08:19:24.274Z,-24102.34
2023-04-13T08:21:54.895Z,-24100.69
2023-04-13T08:24:24.449Z,-24100.00
2023-04-13T08:26:55.144Z,-24101.00
2023-04-13T08:29:25.468Z,-24103.00
2023-04-13T08:31:58.343Z,-24102.90
2023-04-13T08:34:26.705Z,-24101.94
2023-04-13T08:36:55.358Z,-24101.78
2023-04-13T08:39:27.515Z,-24101.50
2023-04-13T08:41:55.979Z,-24101.63
2023-04-13T08:44:24.380Z,-24102.22
2023-04-13T08:46:59.738Z,-24103.15
2023-04-13T08:49:32.634Z,-24103.22
2023-04-13T08:52:23.662Z,-24102.75
2023-04-13T08:54:58.373Z,-24102.41
2023-04-13T08:57:31.105Z,-24102.69
2023-04-13T08:59:59.440Z,-24103.25
2023-04-13T09:02:34.678Z,-24103.59
2023-04-13T09:05:14.115Z,-24104.56
2023-04-13T09:07:44.880Z,-24105.95
2023-04-13T09:10:16.944Z,-24107.04
2023-04-13T09:12:48.631Z,-24107.36
2023-04-13T09:15:17.012Z,-24107.73
2023-04-13T09:18:13.884Z,-24108.35
2023-04-13T09:20:57.839Z,-24109.04
2023-04-13T09:23:26.752Z,-24110.44
2023-04-13T09:26:08.033Z,-24111.68
2023-04-13T09:28:47.216Z,-24112.49
2023-04-13T09:31:16.029Z,-24113.05
2023-04-13T09:33:49.679Z,-24113.33
2023-04-13T09:36:24.554Z,-24112.81
2023-04-13T09:38:55.441Z,-24112.43
2023-04-13T09:41:36.637Z,-24113.08
2023-04-13T09:44:18.948Z,-24113.67
2023-04-13T09:47:00.603Z,-24114.05
2023-04-13T09:49:39.430Z,-24115.04
2023-04-13T09:52:25.210Z,-24116.45
2023-04-13T09:54:59.010Z,-24116.76
2023-04-13T09:57:28.273Z,-24117.41
2023-04-13T09:59:57.873Z,-24117.25
2023-04-13T10:02:27.809Z,-24116.60
2023-04-13T10:04:56.470Z,-24115.45
2023-04-13T10:07:28.926Z,-24115.42
2023-04-13T10:09:57.188Z,-24115.32
2023-04-13T10:12:25.769Z,-24116.04
2023-04-13T10:14:55.256Z,-24117.88
2023-04-13T10:17:37.609Z,-24118.68
2023-04-13T10:20:10.349Z,-24117.88
2023-04-13T10:22:43.204Z,-24116.01
2023-04-13T10:25:25.690Z,-24113.37
2023-04-13T10:28:00.698Z,-24111.96
2023-04-13T10:30:29.294Z,-24111.31
2023-04-13T10:33:09.887Z,-24110.31
2023-04-13T10:35:40.096Z,-24109.32
2023-04-13T10:38:16.190Z,-24109.57
2023-04-13T10:40:48.012Z,-24110.00
2023-04-13T10:43:29.765Z,-24110.72
2023-04-13T10:46:13.170Z,-24110.31
2023-04-13T10:48:41.881Z,-24108.32
2023-04-13T10:51:13.184Z,-24106.27
2023-04-13T10:53:41.578Z,-24104.55
2023-04-13T10:56:17.062Z,-24104.05
2023-04-13T10:58:52.118Z,-24103.37
2023-04-13T11:01:20.902Z,-24101.72
2023-04-13T11:04:03.318Z,-24101.04
2023-04-13T11:06:38.111Z,-24101.04
2023-04-13T11:09:07.653Z,-24100.66
2023-04-13T11:11:37.073Z,-24099.32
2023-04-13T11:14:05.241Z,-24097.11
2023-04-13T11:16:44.090Z,-24094.40
2023-04-13T11:19:13.187Z,-24092.06
2023-04-13T11:21:41.349Z,-24090.66
2023-04-13T11:24:10.302Z,-24089.79
2023-04-13T11:26:38.814Z,-24088.85
2023-04-13T11:29:17.689Z,-24087.14
2023-04-13T11:31:46.092Z,-24085.70
2023-04-13T11:34:22.681Z,-24085.40
2023-04-13T11:37:02.298Z,-24084.58
2023-04-13T11:39:32.378Z,-24082.53
2023-04-13T11:42:05.396Z,-24080.25
2023-04-13T11:44:36.842Z,-24077.82
2023-04-13T11:47:06.168Z,-24074.67
2023-04-13T11:49:48.196Z,-24072.21
2023-04-13T11:52:17.575Z,-24071.65
2023-04-13T11:54:46.038Z,-24071.09
2023-04-13T11:57:14.333Z,-24070.93
2023-04-13T11:59:47.906Z,-24070.43
2023-04-13T12:02:22.018Z,-24070.09
2023-04-13T12:04:51.637Z,-24069.34
2023-04-13T12:07:20.981Z,-24069.56
2023-04-13T12:09:56.657Z,-24070.65
2023-04-13T12:20:07.303Z,-24070.40
2023-04-13T12:25:33.562Z,-24068.72
2023-04-13T12:28:03.366Z,-24066.35
2023-04-13T12:30:35.397Z,-24064.17
2023-04-13T12:33:19.926Z,-24063.11
2023-04-13T12:35:48.088Z,-24062.11
2023-04-13T12:38:18.429Z,-24061.64
2023-04-13T12:40:47.166Z,-24061.77
2023-04-13T12:43:15.580Z,-24060.95
2023-04-13T12:45:44.998Z,-24058.80
2023-04-13T12:48:13.732Z,-24057.49
2023-04-13T12:50:46.663Z,-24057.12
2023-04-13T12:53:16.475Z,-24057.37
2023-04-13T12:55:44.867Z,-24058.24
2023-04-13T12:58:13.020Z,-24059.12
2023-04-13T13:00:41.627Z,-24059.89
2023-04-13T13:03:30.588Z,-24060.49
2023-04-13T13:05:59.594Z,-24060.68
2023-04-13T13:08:28.150Z,-24060.89
2023-04-13T13:10:58.630Z,-24060.61
2023-04-13T13:13:27.115Z,-24061.30
2023-04-13T13:15:55.348Z,-24062.98
2023-04-13T13:18:30.076Z,-24063.23
2023-04-13T13:21:03.682Z,-24062.02
2023-04-13T13:23:32.131Z,-24059.96
2023-04-13T13:26:22.265Z,-24059.68
2023-04-13T13:28:51.031Z,-24059.83
2023-04-13T13:31:19.627Z,-24060.64
2023-04-13T13:33:48.824Z,-24061.36
2023-04-13T13:36:17.170Z,-24062.14
2023-04-13T13:38:45.297Z,-24062.20
2023-04-13T13:41:13.754Z,-24062.23
2023-04-13T13:43:41.902Z,-24063.23
2023-04-13T13:46:11.291Z,-24064.63
2023-04-13T13:48:41.110Z,-24065.94
2023-04-13T13:51:27.775Z,-24066.85
2023-04-13T13:53:56.316Z,-24067.16
2023-04-13T13:56:24.610Z,-24067.13
2023-04-13T13:58:52.754Z,-24067.57
2023-04-13T14:01:21.121Z,-24068.41
2023-04-13T14:03:50.324Z,-24069.28
2023-04-13T14:06:18.703Z,-24070.31
2023-04-13T14:08:49.504Z,-24071.65
2023-04-13T14:11:18.315Z,-24072.80
2023-04-13T14:13:46.507Z,-24073.14
2023-04-13T14:16:19.556Z,-24073.99
2023-04-13T14:18:52.010Z,-24074.86
2023-04-13T14:21:21.936Z,-24076.02
2023-04-13T14:23:51.436Z,-24076.98
2023-04-13T14:26:19.776Z,-24077.42
2023-04-13T14:28:48.134Z,-24077.45
2023-04-13T14:31:16.828Z,-24076.92
2023-04-13T14:33:46.101Z,-24075.64
2023-04-13T14:36:15.677Z,-24074.52
2023-04-13T14:38:44.177Z,-24073.58
2023-04-13T14:41:12.346Z,-24072.90
2023-04-13T14:43:40.657Z,-24072.21
2023-04-13T14:46:10.946Z,-24072.15
2023-04-13T14:48:39.481Z,-24072.18
2023-04-13T14:51:07.652Z,-24071.21
2023-04-13T14:53:35.978Z,-24070.25
2023-04-13T14:56:05.596Z,-24070.22
2023-04-13T14:58:34.716Z,-24070.66
2023-04-13T15:01:19.724Z,-24071.28
2023-04-13T15:03:49.517Z,-24071.21
2023-04-13T15:06:18.887Z,-24070.78
2023-04-13T15:08:47.684Z,-24070.53
2023-04-13T15:11:19.077Z,-24070.09
2023-04-13T15:13:49.371Z,-24069.53
2023-04-13T15:16:18.398Z,-24068.84
2023-04-13T15:18:46.913Z,-24068.54
2023-04-13T15:21:15.703Z,-24068.57
2023-04-13T15:23:45.195Z,-24068.56
2023-04-13T15:26:17.594Z,-24068.50
2023-04-13T15:28:48.965Z,-24068.34
2023-04-13T15:31:17.262Z,-24067.97
2023-04-13T15:33:45.467Z,-24067.66
2023-04-13T15:36:15.987Z,-24067.32
2023-04-13T15:38:45.581Z,-24067.25
2023-04-13T15:41:13.691Z,-24066.63
2023-04-13T15:43:43.836Z,-24065.29
2023-04-13T15:46:12.204Z,-24064.23
2023-04-13T15:48:42.606Z,-24063.32
2023-04-13T15:51:12.362Z,-24062.86
2023-04-13T15:53:40.594Z,-24062.64
2023-04-13T15:56:09.204Z,-24062.05
2023-04-13T15:58:37.456Z,-24061.61
2023-04-13T16:01:12.305Z,-24060.98
2023-04-13T16:03:41.115Z,-24060.27
2023-04-13T16:06:10.717Z,-24060.08
2023-04-13T16:08:39.713Z,-24059.86
2023-04-13T16:11:08.089Z,-24059.83
2023-04-13T16:13:49.002Z,-24059.74
2023-04-13T16:16:24.061Z,-24059.09
2023-04-13T16:19:00.495Z,-24058.52
2023-04-13T16:21:30.403Z,-24057.87
2023-04-13T16:23:58.750Z,-24057.59
2023-04-13T16:26:27.663Z,-24057.18
2023-04-13T16:28:56.494Z,-24056.77
2023-04-13T16:31:24.847Z,-24055.96
2023-04-13T16:33:57.025Z,-24055.56
2023-04-13T16:36:26.055Z,-24054.84
2023-04-13T16:38:54.288Z,-24054.66
2023-04-13T16:41:22.477Z,-24054.41
2023-04-13T16:43:50.700Z,-24054.25
2023-04-13T16:46:22.724Z,-24053.91
2023-04-13T16:48:52.253Z,-24053.81
2023-04-13T16:51:20.511Z,-24053.94
2023-04-13T16:53:48.724Z,-24054.41
2023-04-13T16:56:17.246Z,-24055.28
2023-04-13T16:58:45.974Z,-24055.78
2023-04-13T17:01:14.623Z,-24055.28
2023-04-13T17:03:43.382Z,-24053.97
2023-04-13T17:06:11.748Z,-24052.81
2023-04-13T17:08:45.392Z,-24051.96
2023-04-13T17:11:14.753Z,-24051.50
2023-04-13T17:13:43.146Z,-24051.03
2023-04-13T17:16:14.320Z,-24050.75
2023-04-13T17:18:44.359Z,-24050.38
2023-04-13T17:21:13.151Z,-24049.44
2023-04-13T17:23:41.683Z,-24048.78
2023-04-13T17:26:15.534Z,-24048.04
2023-04-13T17:28:43.893Z,-24047.54
2023-04-13T17:31:12.025Z,-24046.94
2023-04-13T17:33:41.897Z,-24046.32
2023-04-13T17:36:10.046Z,-24046.26
2023-04-13T17:38:38.529Z,-24045.98
2023-04-13T17:41:11.269Z,-24045.32
2023-04-13T17:43:40.731Z,-24044.70
2023-04-13T17:46:08.992Z,-24044.13
2023-04-13T17:48:37.407Z,-24043.51
2023-04-13T17:51:11.222Z,-24042.76
2023-04-13T17:53:39.883Z,-24042.45
2023-04-13T17:56:17.984Z,-24042.57
2023-04-13T17:58:47.290Z,-24042.48
2023-04-13T18:01:15.563Z,-24042.41
2023-04-13T18:03:47.766Z,-24042.26
2023-04-13T18:06:16.297Z,-24041.64
2023-04-13T18:08:44.565Z,-24041.14
2023-04-13T18:11:12.792Z,-24040.95
2023-04-13T18:13:43.452Z,-24040.67
2023-04-13T18:16:14.413Z,-24040.42
2023-04-13T18:18:43.169Z,-24039.89
2023-04-13T18:21:13.027Z,-24039.86
2023-04-13T18:23:41.431Z,-24039.83
2023-04-13T18:26:09.833Z,-24039.55
2023-04-13T18:28:38.183Z,-24039.20
2023-04-13T18:31:11.486Z,-24038.58
2023-04-13T18:33:40.022Z,-24038.27
2023-04-13T18:36:08.311Z,-24038.17
2023-04-13T18:38:40.472Z,-24038.08
2023-04-13T18:41:09.221Z,-24038.05
2023-04-13T18:43:37.473Z,-24037.89
2023-04-13T18:46:08.004Z,-24037.33
2023-04-13T18:48:37.310Z,-24036.89
2023-04-13T18:51:10.025Z,-24036.83
2023-04-13T18:53:39.703Z,-24037.17
2023-04-13T18:56:07.818Z,-24037.45
2023-04-13T18:58:37.047Z,-24037.27
2023-04-13T19:01:23.158Z,-24036.98
2023-04-13T19:03:52.840Z,-24036.55
2023-04-13T19:06:21.333Z,-24036.11
2023-04-13T19:08:51.097Z,-24035.74
2023-04-13T19:11:20.215Z,-24035.27
2023-04-13T19:13:48.366Z,-24034.93
2023-04-13T19:16:22.873Z,-24034.61
2023-04-13T19:18:51.500Z,-24034.30
2023-04-13T19:21:23.863Z,-24034.21
2023-04-13T19:23:56.820Z,-24033.86
2023-04-13T19:26:27.432Z,-24033.24
2023-04-13T19:28:56.023Z,-24032.37
2023-04-13T19:31:24.164Z,-24031.43
2023-04-13T19:33:53.455Z,-24030.65
2023-04-13T19:36:23.645Z,-24029.93
2023-04-13T19:38:52.967Z,-24029.50
2023-04-13T19:41:21.737Z,-24029.15
2023-04-13T19:43:51.115Z,-24028.99
2023-04-13T19:46:19.323Z,-24028.87
2023-04-13T19:48:49.200Z,-24028.93
2023-04-13T19:51:17.391Z,-24028.84
2023-04-13T19:53:48.466Z,-24028.46
2023-04-13T19:56:16.624Z,-24028.09
2023-04-13T19:58:44.782Z,-24027.87
2023-04-13T20:01:16.383Z,-24027.84
2023-04-13T20:03:46.150Z,-24027.62
2023-04-13T20:06:15.626Z,-24027.40
2023-04-13T20:08:46.685Z,-24026.84
2023-04-13T20:11:17.631Z,-24026.63
2023-04-13T20:13:47.379Z,-24026.34
2023-04-13T20:16:15.673Z,-24026.21
2023-04-13T20:18:45.725Z,-24026.09
2023-04-13T20:21:14.701Z,-24025.81
2023-04-13T20:23:42.964Z,-24025.43
2023-04-13T20:26:11.138Z,-24025.15
2023-04-13T20:28:39.776Z,-24024.69
2023-04-13T20:31:08.496Z,-24024.21
2023-04-13T20:33:38.535Z,-24024.03
2023-04-13T20:36:07.606Z,-24024.12
2023-04-13T20:38:36.686Z,-24024.18
2023-04-13T20:41:05.029Z,-24024.15
2023-04-13T20:43:33.442Z,-24024.12
2023-04-13T20:46:01.792Z,-24024.31
2023-04-13T20:51:10.046Z,-24024.06
2023-04-13T20:53:38.836Z,-24023.84
2023-04-13T20:56:07.734Z,-24023.65
2023-04-13T20:58:37.999Z,-24023.31
2023-04-13T21:01:06.215Z,-24023.47
2023-04-13T21:03:38.809Z,-24023.38
2023-04-13T21:06:07.879Z,-24023.34
2023-04-13T21:08:36.567Z,-24023.47
2023-04-13T21:11:06.461Z,-24022.91
2023-04-13T21:13:35.104Z,-24022.43
2023-04-13T21:16:03.481Z,-24022.46
2023-04-13T21:18:42.240Z,-24022.68
2023-04-13T21:21:13.203Z,-24022.96
2023-04-13T21:23:41.351Z,-24022.90
2023-04-13T21:26:13.440Z,-24022.71
2023-04-13T21:28:42.138Z,-24022.65
2023-04-13T21:31:10.234Z,-24022.46
2023-04-13T21:33:39.954Z,-24022.25
2023-04-13T21:38:41.369Z,-24020.84
2023-04-13T21:41:16.644Z,-24019.66
2023-04-13T21:43:44.869Z,-24019.16
2023-04-13T21:46:14.044Z,-24018.41
2023-04-13T21:48:42.429Z,-24018.07
2023-04-13T21:51:10.783Z,-24017.50
2023-04-13T21:53:39.574Z,-24017.28
2023-04-13T21:56:08.062Z,-24017.19
2023-04-13T21:58:42.831Z,-24016.79
2023-04-13T22:01:11.786Z,-24016.50
2023-04-13T22:03:47.030Z,-24016.03
2023-04-13T22:06:15.840Z,-24015.69
2023-04-13T22:08:48.954Z,-24015.75
2023-04-13T22:11:17.114Z,-24015.38
2023-04-13T22:13:45.261Z,-24014.85
2023-04-13T22:16:14.811Z,-24014.25
2023-04-13T22:18:44.077Z,-24013.88
2023-04-13T22:21:12.426Z,-24013.50
2023-04-13T22:23:43.756Z,-24013.10
2023-04-13T22:26:11.907Z,-24012.69
2023-04-13T22:28:40.493Z,-24012.00
2023-04-13T22:31:13.052Z,-24011.57
2023-04-13T22:33:42.291Z,-24011.44
2023-04-13T22:36:20.245Z,-24011.60
2023-04-13T22:38:48.552Z,-24011.19
2023-04-13T22:41:17.036Z,-24010.63
2023-04-13T22:43:45.167Z,-24009.94
2023-04-13T22:46:14.349Z,-24008.88
2023-04-13T22:48:42.975Z,-24007.66
2023-04-13T22:51:11.167Z,-24005.63
2023-04-13T22:53:39.397Z,-24004.32
2023-04-13T22:56:08.483Z,-24003.54
2023-04-13T22:58:37.257Z,-24002.57
2023-04-13T23:01:06.064Z,-24002.07
2023-04-13T23:03:36.777Z,-24001.85
2023-04-13T23:06:05.970Z,-24001.56
2023-04-13T23:08:39.490Z,-24001.53
2023-04-13T23:11:12.128Z,-24001.91
2023-04-13T23:13:40.534Z,-24001.91
2023-04-13T23:16:13.280Z,-24002.19
2023-04-13T23:18:42.830Z,-24001.91
2023-04-13T23:21:12.178Z,-24001.82
2023-04-13T23:23:40.595Z,-24001.91
2023-04-13T23:26:10.063Z,-24001.88
2023-04-13T23:28:38.571Z,-24002.04
2023-04-13T23:31:07.376Z,-24002.13
2023-04-13T23:33:36.827Z,-24002.04
2023-04-13T23:36:05.525Z,-24001.78
2023-04-13T23:38:36.518Z,-24001.75
2023-04-13T23:41:06.350Z,-24001.66
2023-04-13T23:43:34.618Z,-24001.81
2023-04-13T23:46:03.108Z,-24001.97
2023-04-13T23:48:32.538Z,-24001.85
2023-04-13T23:51:01.603Z,-24001.34
2023-04-13T23:53:30.984Z,-24000.79
2023-04-13T23:55:59.161Z,-24000.10
2023-04-13T23:58:27.339Z,-23999.38
